Aérodrome :
LOGIN :

S'inscrire | Disclaimer

   EN    FR    IT 

 










Légende :    VFR   VFR Marginal   IFR   IFR Intensif   IFR Très Intensif
Visi : 
Plafond : 
>= 8 km
>= 3000ft
5 à 8 km
1000 à 3000 ft
1500m à 5 km
500 à 1000 ft
800 à 1500m
200 à 500 ft
< 800m
< 200 ft
Symboles :   Orages  Brouillard  Fortes neiges  Fortes précipitations  Vent > 20 kt
SIGMETs :   Divers  Orages  Givrage  Turbulence  Onde Orograph.  Cendres Volcan.






- Altitude de l'aérodrome : 121 ft
- Code IATA : HUY


EGNJ - Humberside

DERNIER METAR :
  • 162020Z 23006KT 9999 FEW038 16/09 Q1002

METARs EXPIRÉS :
  • 161950Z 23006KT 9999 FEW035 16/09 Q1002
  • 161920Z AUTO 23008KT 9999 NCD 18/09 Q1002
  • 161850Z AUTO 23010KT 9999 NCD 18/09 Q1002
  • 161820Z AUTO 23011KT 9999 NCD 18/09 Q1002
  • 161750Z AUTO 24013KT 9999 FEW048/// 19/08 Q1001
  • 161720Z AUTO 23012KT 9999 BKN048/// 19/08 Q1001
  • 161650Z 26013KT 9999 FEW025 FEW030TCU SCT045 19/07 Q1001
  • 161620Z 25013KT 9999 FEW025 FEW030TCU SCT045 19/07 Q1001
  • 161550Z 26013KT 9999 VCSH FEW025 FEW030TCU SCT040 19/08 Q1001

TAF TAF EGNJ
Valide du 16 à 21h jusqu'au 17 à 06h UTC


161959Z 1621/1706 23009KT 9999 FEW040
TEMPO 1700/1706 7000 -RA BKN012
PROB30
TEMPO 1700/1706 4500 RA BKN008
ATIS : +44 1652 682 020



MET'MAP, la Météo Aéronautique d'un coup d'oeil ! - Copyright ORBIFLY Décembre 2007 - Disclaimer

ORBIFLY MET'MAP TEAM :

Programmation & Développement : Alexandra Zaïnal
Sur une idée originale de : Baudouin d'Aumeries
Soutien technique & logistique : Manuel Goepfert
Assistance : Marc-Olivier Méhu




SOURCES & CREDITS :

   NOAA